sensor_id;sensor_type;location;lat;lon;timestamp;P1;durP1;ratioP1;P2;durP2;ratioP2
13291;SDS011;6714;53.056;8.690;2022-12-18T00:01:52;35.10;;;18.77;;
13291;SDS011;6714;53.056;8.690;2022-12-18T00:04:34;34.08;;;17.95;;
13291;SDS011;6714;53.056;8.690;2022-12-18T00:07:16;31.73;;;18.63;;
13291;SDS011;6714;53.056;8.690;2022-12-18T00:09:58;39.83;;;21.50;;
13291;SDS011;6714;53.056;8.690;2022-12-18T00:12:41;37.05;;;20.10;;
13291;SDS011;6714;53.056;8.690;2022-12-18T00:15:24;29.90;;;18.40;;
13291;SDS011;6714;53.056;8.690;2022-12-18T00:18:06;38.25;;;20.90;;
13291;SDS011;6714;53.056;8.690;2022-12-18T00:20:49;33.47;;;19.52;;
13291;SDS011;6714;53.056;8.690;2022-12-18T00:23:31;33.92;;;19.20;;
13291;SDS011;6714;53.056;8.690;2022-12-18T00:26:15;40.70;;;20.63;;
13291;SDS011;6714;53.056;8.690;2022-12-18T00:28:58;37.53;;;21.40;;
13291;SDS011;6714;53.056;8.690;2022-12-18T00:31:42;38.88;;;21.02;;
13291;SDS011;6714;53.056;8.690;2022-12-18T00:34:24;36.80;;;20.80;;
13291;SDS011;6714;53.056;8.690;2022-12-18T00:37:06;35.90;;;19.55;;
13291;SDS011;6714;53.056;8.690;2022-12-18T00:39:48;37.50;;;19.60;;
13291;SDS011;6714;53.056;8.690;2022-12-18T00:42:31;32.72;;;18.42;;
13291;SDS011;6714;53.056;8.690;2022-12-18T00:45:30;38.72;;;19.50;;
13291;SDS011;6714;53.056;8.690;2022-12-18T00:48:14;38.35;;;19.90;;
13291;SDS011;6714;53.056;8.690;2022-12-18T00:50:56;39.30;;;21.02;;
13291;SDS011;6714;53.056;8.690;2022-12-18T00:53:38;35.53;;;19.10;;
13291;SDS011;6714;53.056;8.690;2022-12-18T00:56:21;31.60;;;18.00;;
13291;SDS011;6714;53.056;8.690;2022-12-18T00:59:04;36.90;;;19.10;;
13291;SDS011;6714;53.056;8.690;2022-12-18T01:01:46;32.38;;;17.77;;
13291;SDS011;6714;53.056;8.690;2022-12-18T01:04:32;31.95;;;19.00;;
13291;SDS011;6714;53.056;8.690;2022-12-18T01:07:14;39.95;;;20.33;;
13291;SDS011;6714;53.056;8.690;2022-12-18T01:09:56;32.58;;;18.40;;
13291;SDS011;6714;53.056;8.690;2022-12-18T01:12:39;37.35;;;19.55;;
13291;SDS011;6714;53.056;8.690;2022-12-18T01:15:21;36.03;;;19.40;;
13291;SDS011;6714;53.056;8.690;2022-12-18T01:18:03;31.02;;;17.45;;
13291;SDS011;6714;53.056;8.690;2022-12-18T01:20:47;37.30;;;19.23;;
13291;SDS011;6714;53.056;8.690;2022-12-18T01:23:29;30.48;;;18.08;;
13291;SDS011;6714;53.056;8.690;2022-12-18T01:26:12;34.15;;;19.10;;
13291;SDS011;6714;53.056;8.690;2022-12-18T01:28:54;37.50;;;19.77;;
13291;SDS011;6714;53.056;8.690;2022-12-18T01:31:37;32.33;;;19.17;;
13291;SDS011;6714;53.056;8.690;2022-12-18T01:34:19;35.00;;;18.77;;
13291;SDS011;6714;53.056;8.690;2022-12-18T01:37:03;35.13;;;19.50;;
13291;SDS011;6714;53.056;8.690;2022-12-18T01:39:46;32.80;;;18.50;;
13291;SDS011;6714;53.056;8.690;2022-12-18T01:42:29;32.05;;;19.10;;
13291;SDS011;6714;53.056;8.690;2022-12-18T01:45:22;30.35;;;18.35;;
13291;SDS011;6714;53.056;8.690;2022-12-18T01:48:05;33.55;;;19.30;;
13291;SDS011;6714;53.056;8.690;2022-12-18T01:50:48;34.17;;;18.98;;
13291;SDS011;6714;53.056;8.690;2022-12-18T01:53:32;32.10;;;19.08;;
13291;SDS011;6714;53.056;8.690;2022-12-18T01:56:15;32.90;;;17.95;;
13291;SDS011;6714;53.056;8.690;2022-12-18T01:58:58;32.25;;;19.27;;
13291;SDS011;6714;53.056;8.690;2022-12-18T02:01:42;35.92;;;18.52;;
13291;SDS011;6714;53.056;8.690;2022-12-18T02:04:25;32.28;;;18.67;;
13291;SDS011;6714;53.056;8.690;2022-12-18T02:07:17;29.77;;;17.67;;
13291;SDS011;6714;53.056;8.690;2022-12-18T02:10:04;29.90;;;18.27;;
13291;SDS011;6714;53.056;8.690;2022-12-18T02:12:49;31.63;;;18.38;;
13291;SDS011;6714;53.056;8.690;2022-12-18T02:15:34;32.80;;;16.85;;
13291;SDS011;6714;53.056;8.690;2022-12-18T02:18:18;32.53;;;18.70;;
13291;SDS011;6714;53.056;8.690;2022-12-18T02:21:04;31.25;;;18.17;;
13291;SDS011;6714;53.056;8.690;2022-12-18T02:23:50;30.08;;;17.45;;
13291;SDS011;6714;53.056;8.690;2022-12-18T02:26:38;28.58;;;17.25;;
13291;SDS011;6714;53.056;8.690;2022-12-18T02:29:25;30.65;;;18.58;;
13291;SDS011;6714;53.056;8.690;2022-12-18T02:32:09;30.73;;;17.73;;
13291;SDS011;6714;53.056;8.690;2022-12-18T02:34:53;28.13;;;17.38;;
13291;SDS011;6714;53.056;8.690;2022-12-18T02:37:38;29.17;;;17.67;;
13291;SDS011;6714;53.056;8.690;2022-12-18T02:40:22;28.80;;;18.15;;
13291;SDS011;6714;53.056;8.690;2022-12-18T02:43:08;30.98;;;18.33;;
13291;SDS011;6714;53.056;8.690;2022-12-18T02:45:52;28.90;;;17.55;;
13291;SDS011;6714;53.056;8.690;2022-12-18T02:48:34;31.80;;;18.08;;
13291;SDS011;6714;53.056;8.690;2022-12-18T02:51:17;29.98;;;17.55;;
13291;SDS011;6714;53.056;8.690;2022-12-18T02:54:05;27.65;;;16.60;;
13291;SDS011;6714;53.056;8.690;2022-12-18T02:56:49;30.75;;;17.05;;
13291;SDS011;6714;53.056;8.690;2022-12-18T02:59:36;29.50;;;15.93;;
13291;SDS011;6714;53.056;8.690;2022-12-18T03:02:23;29.20;;;17.45;;
13291;SDS011;6714;53.056;8.690;2022-12-18T03:05:10;26.90;;;16.27;;
13291;SDS011;6714;53.056;8.690;2022-12-18T03:07:55;27.20;;;16.67;;
13291;SDS011;6714;53.056;8.690;2022-12-18T03:10:39;28.75;;;16.30;;
13291;SDS011;6714;53.056;8.690;2022-12-18T03:13:25;28.60;;;17.05;;
13291;SDS011;6714;53.056;8.690;2022-12-18T03:16:11;26.42;;;16.30;;
13291;SDS011;6714;53.056;8.690;2022-12-18T03:18:54;26.33;;;16.55;;
13291;SDS011;6714;53.056;8.690;2022-12-18T03:21:43;28.15;;;16.42;;
13291;SDS011;6714;53.056;8.690;2022-12-18T03:24:26;29.08;;;16.33;;
13291;SDS011;6714;53.056;8.690;2022-12-18T03:27:10;30.42;;;16.90;;
13291;SDS011;6714;53.056;8.690;2022-12-18T03:29:54;25.95;;;15.52;;
13291;SDS011;6714;53.056;8.690;2022-12-18T03:32:44;29.45;;;17.17;;
13291;SDS011;6714;53.056;8.690;2022-12-18T03:35:30;26.58;;;15.68;;
13291;SDS011;6714;53.056;8.690;2022-12-18T03:38:13;27.90;;;16.33;;
13291;SDS011;6714;53.056;8.690;2022-12-18T03:40:58;26.23;;;15.68;;
13291;SDS011;6714;53.056;8.690;2022-12-18T03:43:42;26.63;;;15.35;;
13291;SDS011;6714;53.056;8.690;2022-12-18T03:46:28;25.90;;;15.82;;
13291;SDS011;6714;53.056;8.690;2022-12-18T03:49:13;23.83;;;15.13;;
13291;SDS011;6714;53.056;8.690;2022-12-18T03:51:59;25.38;;;15.68;;
13291;SDS011;6714;53.056;8.690;2022-12-18T03:54:43;27.27;;;15.57;;
13291;SDS011;6714;53.056;8.690;2022-12-18T03:57:28;23.83;;;15.18;;
13291;SDS011;6714;53.056;8.690;2022-12-18T04:00:12;24.35;;;15.00;;
13291;SDS011;6714;53.056;8.690;2022-12-18T04:02:55;24.77;;;14.95;;
13291;SDS011;6714;53.056;8.690;2022-12-18T04:05:39;26.13;;;14.98;;
13291;SDS011;6714;53.056;8.690;2022-12-18T04:08:23;26.13;;;15.35;;
13291;SDS011;6714;53.056;8.690;2022-12-18T04:11:05;22.45;;;14.57;;
13291;SDS011;6714;53.056;8.690;2022-12-18T04:13:47;27.65;;;15.90;;
13291;SDS011;6714;53.056;8.690;2022-12-18T04:16:30;23.23;;;13.65;;
13291;SDS011;6714;53.056;8.690;2022-12-18T04:19:12;27.13;;;16.33;;
13291;SDS011;6714;53.056;8.690;2022-12-18T04:21:56;23.00;;;14.30;;
13291;SDS011;6714;53.056;8.690;2022-12-18T04:24:38;24.92;;;14.68;;
13291;SDS011;6714;53.056;8.690;2022-12-18T04:27:20;23.55;;;13.57;;
13291;SDS011;6714;53.056;8.690;2022-12-18T04:30:03;22.55;;;13.70;;
13291;SDS011;6714;53.056;8.690;2022-12-18T04:32:45;25.10;;;14.40;;
13291;SDS011;6714;53.056;8.690;2022-12-18T04:35:27;20.77;;;13.00;;
13291;SDS011;6714;53.056;8.690;2022-12-18T04:38:11;24.17;;;15.02;;
13291;SDS011;6714;53.056;8.690;2022-12-18T04:40:53;22.80;;;14.35;;
13291;SDS011;6714;53.056;8.690;2022-12-18T04:43:35;22.73;;;13.90;;
13291;SDS011;6714;53.056;8.690;2022-12-18T04:46:17;21.15;;;12.65;;
13291;SDS011;6714;53.056;8.690;2022-12-18T04:49:00;22.85;;;14.13;;
13291;SDS011;6714;53.056;8.690;2022-12-18T04:51:42;20.80;;;14.05;;
13291;SDS011;6714;53.056;8.690;2022-12-18T04:54:25;22.23;;;13.60;;
13291;SDS011;6714;53.056;8.690;2022-12-18T04:57:08;22.35;;;12.80;;
13291;SDS011;6714;53.056;8.690;2022-12-18T04:59:50;22.60;;;14.35;;
13291;SDS011;6714;53.056;8.690;2022-12-18T05:02:32;26.25;;;15.02;;
13291;SDS011;6714;53.056;8.690;2022-12-18T05:05:14;21.55;;;13.85;;
13291;SDS011;6714;53.056;8.690;2022-12-18T05:07:56;24.80;;;14.73;;
13291;SDS011;6714;53.056;8.690;2022-12-18T05:10:40;21.77;;;13.32;;
13291;SDS011;6714;53.056;8.690;2022-12-18T05:13:22;21.00;;;12.93;;
13291;SDS011;6714;53.056;8.690;2022-12-18T05:16:05;21.30;;;13.35;;
13291;SDS011;6714;53.056;8.690;2022-12-18T05:18:47;20.58;;;13.02;;
13291;SDS011;6714;53.056;8.690;2022-12-18T05:21:30;24.88;;;13.95;;
13291;SDS011;6714;53.056;8.690;2022-12-18T05:24:12;20.52;;;12.85;;
13291;SDS011;6714;53.056;8.690;2022-12-18T05:26:56;21.58;;;12.48;;
13291;SDS011;6714;53.056;8.690;2022-12-18T05:29:38;20.98;;;13.15;;
13291;SDS011;6714;53.056;8.690;2022-12-18T05:32:20;20.48;;;12.93;;
13291;SDS011;6714;53.056;8.690;2022-12-18T05:35:03;21.63;;;12.70;;
13291;SDS011;6714;53.056;8.690;2022-12-18T05:37:45;23.80;;;14.20;;
13291;SDS011;6714;53.056;8.690;2022-12-18T05:40:27;20.45;;;13.27;;
13291;SDS011;6714;53.056;8.690;2022-12-18T05:43:11;20.30;;;13.15;;
13291;SDS011;6714;53.056;8.690;2022-12-18T05:45:53;21.40;;;13.55;;
13291;SDS011;6714;53.056;8.690;2022-12-18T05:48:36;19.40;;;12.25;;
13291;SDS011;6714;53.056;8.690;2022-12-18T05:51:20;18.33;;;12.07;;
13291;SDS011;6714;53.056;8.690;2022-12-18T05:54:02;19.25;;;11.93;;
13291;SDS011;6714;53.056;8.690;2022-12-18T05:56:44;20.67;;;12.32;;
13291;SDS011;6714;53.056;8.690;2022-12-18T05:59:28;19.20;;;12.30;;
13291;SDS011;6714;53.056;8.690;2022-12-18T06:02:10;17.52;;;11.75;;
13291;SDS011;6714;53.056;8.690;2022-12-18T06:04:53;17.70;;;11.65;;
13291;SDS011;6714;53.056;8.690;2022-12-18T06:07:35;18.50;;;11.45;;
13291;SDS011;6714;53.056;8.690;2022-12-18T06:10:17;20.48;;;12.63;;
13291;SDS011;6714;53.056;8.690;2022-12-18T06:12:59;17.77;;;11.00;;
13291;SDS011;6714;53.056;8.690;2022-12-18T06:15:43;18.63;;;12.23;;
13291;SDS011;6714;53.056;8.690;2022-12-18T06:18:26;17.08;;;11.73;;
13291;SDS011;6714;53.056;8.690;2022-12-18T06:21:08;22.30;;;11.93;;
13291;SDS011;6714;53.056;8.690;2022-12-18T06:23:50;20.65;;;12.52;;
13291;SDS011;6714;53.056;8.690;2022-12-18T06:26:32;21.10;;;11.20;;
13291;SDS011;6714;53.056;8.690;2022-12-18T06:29:15;19.00;;;12.00;;
13291;SDS011;6714;53.056;8.690;2022-12-18T06:31:58;19.75;;;11.18;;
13291;SDS011;6714;53.056;8.690;2022-12-18T06:34:40;17.15;;;11.07;;
13291;SDS011;6714;53.056;8.690;2022-12-18T06:37:22;19.98;;;11.77;;
13291;SDS011;6714;53.056;8.690;2022-12-18T06:40:06;18.30;;;10.88;;
13291;SDS011;6714;53.056;8.690;2022-12-18T06:42:49;15.63;;;10.82;;
13291;SDS011;6714;53.056;8.690;2022-12-18T06:45:44;18.90;;;11.55;;
13291;SDS011;6714;53.056;8.690;2022-12-18T06:48:31;16.05;;;10.88;;
13291;SDS011;6714;53.056;8.690;2022-12-18T06:51:15;21.60;;;12.48;;
13291;SDS011;6714;53.056;8.690;2022-12-18T06:53:57;17.70;;;10.50;;
13291;SDS011;6714;53.056;8.690;2022-12-18T06:56:39;19.25;;;11.57;;
13291;SDS011;6714;53.056;8.690;2022-12-18T06:59:21;15.82;;;10.80;;
13291;SDS011;6714;53.056;8.690;2022-12-18T07:02:04;17.98;;;11.75;;
13291;SDS011;6714;53.056;8.690;2022-12-18T07:04:47;15.57;;;10.07;;
13291;SDS011;6714;53.056;8.690;2022-12-18T07:07:29;16.95;;;11.45;;
13291;SDS011;6714;53.056;8.690;2022-12-18T07:10:11;19.08;;;10.93;;
13291;SDS011;6714;53.056;8.690;2022-12-18T07:12:54;20.17;;;11.48;;
13291;SDS011;6714;53.056;8.690;2022-12-18T07:15:36;18.17;;;10.80;;
13291;SDS011;6714;53.056;8.690;2022-12-18T07:18:18;20.10;;;10.95;;
13291;SDS011;6714;53.056;8.690;2022-12-18T07:21:04;15.70;;;10.57;;
13291;SDS011;6714;53.056;8.690;2022-12-18T07:23:46;17.02;;;10.85;;
13291;SDS011;6714;53.056;8.690;2022-12-18T07:26:28;18.63;;;10.77;;
13291;SDS011;6714;53.056;8.690;2022-12-18T07:29:11;16.42;;;10.35;;
13291;SDS011;6714;53.056;8.690;2022-12-18T07:31:53;15.55;;;10.00;;
13291;SDS011;6714;53.056;8.690;2022-12-18T07:34:35;19.58;;;11.15;;
13291;SDS011;6714;53.056;8.690;2022-12-18T07:37:19;16.70;;;10.68;;
13291;SDS011;6714;53.056;8.690;2022-12-18T07:40:01;15.43;;;10.10;;
13291;SDS011;6714;53.056;8.690;2022-12-18T07:42:43;13.82;;;9.88;;
13291;SDS011;6714;53.056;8.690;2022-12-18T07:45:25;19.40;;;10.65;;
13291;SDS011;6714;53.056;8.690;2022-12-18T07:48:07;22.70;;;13.18;;
13291;SDS011;6714;53.056;8.690;2022-12-18T07:50:50;14.75;;;10.20;;
13291;SDS011;6714;53.056;8.690;2022-12-18T07:53:34;17.38;;;10.85;;
13291;SDS011;6714;53.056;8.690;2022-12-18T07:56:18;17.02;;;11.85;;
13291;SDS011;6714;53.056;8.690;2022-12-18T07:59:01;18.95;;;11.88;;
13291;SDS011;6714;53.056;8.690;2022-12-18T08:01:43;18.77;;;11.15;;
13291;SDS011;6714;53.056;8.690;2022-12-18T08:04:25;14.95;;;10.60;;
13291;SDS011;6714;53.056;8.690;2022-12-18T08:07:08;17.70;;;11.05;;
13291;SDS011;6714;53.056;8.690;2022-12-18T08:09:52;17.83;;;11.88;;
13291;SDS011;6714;53.056;8.690;2022-12-18T08:12:34;16.52;;;10.45;;
13291;SDS011;6714;53.056;8.690;2022-12-18T08:15:16;18.40;;;11.60;;
13291;SDS011;6714;53.056;8.690;2022-12-18T08:17:58;16.98;;;11.02;;
13291;SDS011;6714;53.056;8.690;2022-12-18T08:20:40;18.17;;;10.63;;
13291;SDS011;6714;53.056;8.690;2022-12-18T08:23:23;17.05;;;11.35;;
13291;SDS011;6714;53.056;8.690;2022-12-18T08:26:06;18.65;;;11.15;;
13291;SDS011;6714;53.056;8.690;2022-12-18T08:28:48;18.33;;;10.63;;
13291;SDS011;6714;53.056;8.690;2022-12-18T08:31:31;19.15;;;10.82;;
13291;SDS011;6714;53.056;8.690;2022-12-18T08:34:13;16.55;;;10.63;;
13291;SDS011;6714;53.056;8.690;2022-12-18T08:36:55;19.20;;;11.23;;
13291;SDS011;6714;53.056;8.690;2022-12-18T08:39:37;14.43;;;10.23;;
13291;SDS011;6714;53.056;8.690;2022-12-18T08:42:21;18.15;;;11.52;;
13291;SDS011;6714;53.056;8.690;2022-12-18T08:45:21;17.65;;;11.63;;
13291;SDS011;6714;53.056;8.690;2022-12-18T08:48:05;16.52;;;10.57;;
13291;SDS011;6714;53.056;8.690;2022-12-18T08:50:53;23.45;;;12.48;;
13291;SDS011;6714;53.056;8.690;2022-12-18T08:53:35;16.25;;;11.35;;
13291;SDS011;6714;53.056;8.690;2022-12-18T08:56:17;23.38;;;12.15;;
13291;SDS011;6714;53.056;8.690;2022-12-18T08:59:01;21.40;;;12.38;;
13291;SDS011;6714;53.056;8.690;2022-12-18T09:01:44;17.40;;;11.65;;
13291;SDS011;6714;53.056;8.690;2022-12-18T09:04:27;15.57;;;10.77;;
13291;SDS011;6714;53.056;8.690;2022-12-18T09:07:09;17.35;;;10.15;;
13291;SDS011;6714;53.056;8.690;2022-12-18T09:09:51;20.38;;;12.93;;
13291;SDS011;6714;53.056;8.690;2022-12-18T09:12:34;24.15;;;13.38;;
13291;SDS011;6714;53.056;8.690;2022-12-18T09:15:18;17.50;;;10.77;;
13291;SDS011;6714;53.056;8.690;2022-12-18T09:18:00;17.90;;;12.27;;
13291;SDS011;6714;53.056;8.690;2022-12-18T09:20:43;17.83;;;11.75;;
13291;SDS011;6714;53.056;8.690;2022-12-18T09:23:25;18.25;;;12.18;;
13291;SDS011;6714;53.056;8.690;2022-12-18T09:26:07;20.38;;;12.43;;
13291;SDS011;6714;53.056;8.690;2022-12-18T09:28:50;21.02;;;13.05;;
13291;SDS011;6714;53.056;8.690;2022-12-18T09:31:34;22.55;;;13.85;;
13291;SDS011;6714;53.056;8.690;2022-12-18T09:34:17;23.27;;;13.02;;
13291;SDS011;6714;53.056;8.690;2022-12-18T09:37:01;19.38;;;12.68;;
13291;SDS011;6714;53.056;8.690;2022-12-18T09:39:43;22.85;;;13.30;;
13291;SDS011;6714;53.056;8.690;2022-12-18T09:42:25;19.00;;;12.32;;
13291;SDS011;6714;53.056;8.690;2022-12-18T09:45:08;25.13;;;15.25;;
13291;SDS011;6714;53.056;8.690;2022-12-18T09:47:56;20.88;;;12.93;;
13291;SDS011;6714;53.056;8.690;2022-12-18T09:50:42;19.45;;;13.13;;
13291;SDS011;6714;53.056;8.690;2022-12-18T09:53:26;17.10;;;11.43;;
13291;SDS011;6714;53.056;8.690;2022-12-18T09:56:10;21.65;;;14.32;;
13291;SDS011;6714;53.056;8.690;2022-12-18T09:58:55;20.42;;;12.88;;
13291;SDS011;6714;53.056;8.690;2022-12-18T10:01:39;18.17;;;12.52;;
13291;SDS011;6714;53.056;8.690;2022-12-18T10:04:23;21.60;;;14.20;;
13291;SDS011;6714;53.056;8.690;2022-12-18T10:07:07;21.88;;;12.70;;
13291;SDS011;6714;53.056;8.690;2022-12-18T10:09:56;20.63;;;13.50;;
13291;SDS011;6714;53.056;8.690;2022-12-18T10:12:42;26.50;;;14.82;;
13291;SDS011;6714;53.056;8.690;2022-12-18T10:15:28;25.35;;;14.80;;
13291;SDS011;6714;53.056;8.690;2022-12-18T10:18:16;17.60;;;11.95;;
13291;SDS011;6714;53.056;8.690;2022-12-18T10:21:05;20.10;;;13.77;;
13291;SDS011;6714;53.056;8.690;2022-12-18T10:23:51;18.75;;;12.85;;
13291;SDS011;6714;53.056;8.690;2022-12-18T10:26:37;19.38;;;12.95;;
13291;SDS011;6714;53.056;8.690;2022-12-18T10:29:19;22.45;;;14.27;;
13291;SDS011;6714;53.056;8.690;2022-12-18T10:35:07;19.70;;;12.63;;
13291;SDS011;6714;53.056;8.690;2022-12-18T10:40:52;17.25;;;12.30;;
13291;SDS011;6714;53.056;8.690;2022-12-18T10:46:36;21.92;;;13.63;;
13291;SDS011;6714;53.056;8.690;2022-12-18T10:49:19;18.33;;;11.88;;
13291;SDS011;6714;53.056;8.690;2022-12-18T10:52:11;21.65;;;13.93;;
13291;SDS011;6714;53.056;8.690;2022-12-18T10:54:57;25.23;;;14.65;;
13291;SDS011;6714;53.056;8.690;2022-12-18T10:57:44;18.50;;;12.68;;
13291;SDS011;6714;53.056;8.690;2022-12-18T11:00:32;22.30;;;14.65;;
13291;SDS011;6714;53.056;8.690;2022-12-18T11:03:28;22.80;;;14.15;;
13291;SDS011;6714;53.056;8.690;2022-12-18T11:06:12;20.13;;;13.37;;
13291;SDS011;6714;53.056;8.690;2022-12-18T11:09:04;25.20;;;14.77;;
13291;SDS011;6714;53.056;8.690;2022-12-18T11:12:23;23.40;;;14.60;;
13291;SDS011;6714;53.056;8.690;2022-12-18T11:18:19;20.47;;;13.70;;
13291;SDS011;6714;53.056;8.690;2022-12-18T11:24:21;21.07;;;13.80;;
13291;SDS011;6714;53.056;8.690;2022-12-18T11:27:05;21.50;;;14.07;;
13291;SDS011;6714;53.056;8.690;2022-12-18T11:29:47;18.80;;;13.17;;
13291;SDS011;6714;53.056;8.690;2022-12-18T11:32:32;19.87;;;13.90;;
13291;SDS011;6714;53.056;8.690;2022-12-18T11:38:28;19.10;;;13.77;;
13291;SDS011;6714;53.056;8.690;2022-12-18T11:41:15;21.13;;;13.67;;
13291;SDS011;6714;53.056;8.690;2022-12-18T11:44:01;22.23;;;14.33;;
13291;SDS011;6714;53.056;8.690;2022-12-18T11:46:46;21.67;;;13.97;;
13291;SDS011;6714;53.056;8.690;2022-12-18T11:49:32;20.17;;;13.23;;
13291;SDS011;6714;53.056;8.690;2022-12-18T11:52:16;23.50;;;15.23;;
13291;SDS011;6714;53.056;8.690;2022-12-18T11:55:05;24.80;;;15.67;;
13291;SDS011;6714;53.056;8.690;2022-12-18T11:57:53;19.03;;;12.67;;
13291;SDS011;6714;53.056;8.690;2022-12-18T12:00:36;22.83;;;14.97;;
13291;SDS011;6714;53.056;8.690;2022-12-18T12:03:27;24.80;;;15.77;;
13291;SDS011;6714;53.056;8.690;2022-12-18T12:06:20;22.23;;;15.07;;
13291;SDS011;6714;53.056;8.690;2022-12-18T12:09:08;21.37;;;14.20;;
13291;SDS011;6714;53.056;8.690;2022-12-18T12:11:57;21.43;;;14.77;;
13291;SDS011;6714;53.056;8.690;2022-12-18T12:14:44;23.07;;;15.13;;
13291;SDS011;6714;53.056;8.690;2022-12-18T12:17:32;22.70;;;15.33;;
13291;SDS011;6714;53.056;8.690;2022-12-18T12:20:18;25.70;;;15.97;;
13291;SDS011;6714;53.056;8.690;2022-12-18T12:23:03;19.43;;;14.00;;
13291;SDS011;6714;53.056;8.690;2022-12-18T12:25:49;22.70;;;15.33;;
13291;SDS011;6714;53.056;8.690;2022-12-18T12:28:43;24.07;;;15.83;;
13291;SDS011;6714;53.056;8.690;2022-12-18T12:31:33;23.60;;;14.70;;
13291;SDS011;6714;53.056;8.690;2022-12-18T12:34:19;21.83;;;14.30;;
13291;SDS011;6714;53.056;8.690;2022-12-18T12:37:07;21.83;;;15.33;;
13291;SDS011;6714;53.056;8.690;2022-12-18T12:39:52;21.90;;;14.57;;
13291;SDS011;6714;53.056;8.690;2022-12-18T12:42:38;22.87;;;15.27;;
13291;SDS011;6714;53.056;8.690;2022-12-18T12:45:40;24.37;;;15.60;;
13291;SDS011;6714;53.056;8.690;2022-12-18T12:48:30;22.47;;;15.03;;
13291;SDS011;6714;53.056;8.690;2022-12-18T12:51:15;26.73;;;16.93;;
13291;SDS011;6714;53.056;8.690;2022-12-18T12:53:58;23.17;;;16.23;;
13291;SDS011;6714;53.056;8.690;2022-12-18T12:56:57;24.43;;;15.50;;
13291;SDS011;6714;53.056;8.690;2022-12-18T12:59:50;20.23;;;13.93;;
13291;SDS011;6714;53.056;8.690;2022-12-18T13:02:42;20.40;;;14.27;;
13291;SDS011;6714;53.056;8.690;2022-12-18T13:05:29;22.33;;;14.80;;
13291;SDS011;6714;53.056;8.690;2022-12-18T13:08:21;21.00;;;14.10;;
13291;SDS011;6714;53.056;8.690;2022-12-18T13:11:04;22.87;;;14.87;;
13291;SDS011;6714;53.056;8.690;2022-12-18T13:14:29;20.00;;;13.67;;
13291;SDS011;6714;53.056;8.690;2022-12-18T13:17:24;21.47;;;14.60;;
13291;SDS011;6714;53.056;8.690;2022-12-18T13:20:11;20.33;;;14.23;;
13291;SDS011;6714;53.056;8.690;2022-12-18T13:22:54;24.93;;;15.30;;
13291;SDS011;6714;53.056;8.690;2022-12-18T13:25:37;17.63;;;13.37;;
13291;SDS011;6714;53.056;8.690;2022-12-18T13:28:20;19.13;;;12.67;;
13291;SDS011;6714;53.056;8.690;2022-12-18T13:31:04;17.57;;;13.10;;
13291;SDS011;6714;53.056;8.690;2022-12-18T13:33:46;24.93;;;15.30;;
13291;SDS011;6714;53.056;8.690;2022-12-18T13:36:32;20.43;;;14.13;;
13291;SDS011;6714;53.056;8.690;2022-12-18T13:45:45;19.27;;;13.17;;
13291;SDS011;6714;53.056;8.690;2022-12-18T13:48:29;18.10;;;13.13;;
13291;SDS011;6714;53.056;8.690;2022-12-18T13:51:13;18.27;;;12.67;;
13291;SDS011;6714;53.056;8.690;2022-12-18T13:54:00;18.33;;;12.63;;
13291;SDS011;6714;53.056;8.690;2022-12-18T13:56:45;17.80;;;12.27;;
13291;SDS011;6714;53.056;8.690;2022-12-18T13:59:36;20.57;;;12.80;;
13291;SDS011;6714;53.056;8.690;2022-12-18T14:02:20;19.07;;;13.73;;
13291;SDS011;6714;53.056;8.690;2022-12-18T14:05:03;21.00;;;14.47;;
13291;SDS011;6714;53.056;8.690;2022-12-18T14:07:46;17.90;;;13.07;;
13291;SDS011;6714;53.056;8.690;2022-12-18T14:10:30;19.00;;;13.53;;
13291;SDS011;6714;53.056;8.690;2022-12-18T14:16:31;19.30;;;14.03;;
13291;SDS011;6714;53.056;8.690;2022-12-18T14:19:14;17.53;;;12.47;;
13291;SDS011;6714;53.056;8.690;2022-12-18T14:21:58;14.70;;;11.17;;
13291;SDS011;6714;53.056;8.690;2022-12-18T14:24:40;16.87;;;12.50;;
13291;SDS011;6714;53.056;8.690;2022-12-18T14:27:24;23.57;;;14.60;;
13291;SDS011;6714;53.056;8.690;2022-12-18T14:30:18;17.70;;;13.03;;
13291;SDS011;6714;53.056;8.690;2022-12-18T14:33:09;22.37;;;15.33;;
13291;SDS011;6714;53.056;8.690;2022-12-18T14:35:53;16.30;;;11.07;;
13291;SDS011;6714;53.056;8.690;2022-12-18T14:38:36;21.73;;;14.80;;
13291;SDS011;6714;53.056;8.690;2022-12-18T14:41:18;17.30;;;12.77;;
13291;SDS011;6714;53.056;8.690;2022-12-18T14:44:07;20.47;;;14.27;;
13291;SDS011;6714;53.056;8.690;2022-12-18T14:46:50;18.57;;;14.00;;
13291;SDS011;6714;53.056;8.690;2022-12-18T14:49:33;21.30;;;14.53;;
13291;SDS011;6714;53.056;8.690;2022-12-18T14:52:18;20.00;;;13.50;;
13291;SDS011;6714;53.056;8.690;2022-12-18T14:55:03;16.30;;;11.93;;
13291;SDS011;6714;53.056;8.690;2022-12-18T14:57:45;15.70;;;11.23;;
13291;SDS011;6714;53.056;8.690;2022-12-18T15:00:32;19.60;;;13.70;;
13291;SDS011;6714;53.056;8.690;2022-12-18T15:03:17;12.23;;;10.23;;
13291;SDS011;6714;53.056;8.690;2022-12-18T15:06:14;19.97;;;13.00;;
13291;SDS011;6714;53.056;8.690;2022-12-18T15:08:57;15.80;;;11.30;;
13291;SDS011;6714;53.056;8.690;2022-12-18T15:11:43;18.43;;;13.00;;
13291;SDS011;6714;53.056;8.690;2022-12-18T15:14:39;19.13;;;13.40;;
13291;SDS011;6714;53.056;8.690;2022-12-18T15:17:23;19.10;;;12.00;;
13291;SDS011;6714;53.056;8.690;2022-12-18T15:20:09;16.67;;;12.10;;
13291;SDS011;6714;53.056;8.690;2022-12-18T15:22:52;18.80;;;12.37;;
13291;SDS011;6714;53.056;8.690;2022-12-18T15:25:35;19.83;;;12.47;;
13291;SDS011;6714;53.056;8.690;2022-12-18T15:28:21;15.33;;;11.23;;
13291;SDS011;6714;53.056;8.690;2022-12-18T15:31:17;16.77;;;11.17;;
13291;SDS011;6714;53.056;8.690;2022-12-18T15:34:12;19.60;;;12.00;;
13291;SDS011;6714;53.056;8.690;2022-12-18T15:36:55;18.07;;;12.73;;
13291;SDS011;6714;53.056;8.690;2022-12-18T15:39:38;18.90;;;12.57;;
13291;SDS011;6714;53.056;8.690;2022-12-18T15:42:20;19.33;;;12.33;;
13291;SDS011;6714;53.056;8.690;2022-12-18T15:45:20;14.27;;;9.57;;
13291;SDS011;6714;53.056;8.690;2022-12-18T15:48:04;15.57;;;10.73;;
13291;SDS011;6714;53.056;8.690;2022-12-18T15:50:48;14.47;;;10.40;;
13291;SDS011;6714;53.056;8.690;2022-12-18T15:53:31;14.97;;;10.37;;
13291;SDS011;6714;53.056;8.690;2022-12-18T15:56:14;14.33;;;10.30;;
13291;SDS011;6714;53.056;8.690;2022-12-18T15:59:16;13.60;;;9.93;;
13291;SDS011;6714;53.056;8.690;2022-12-18T16:01:58;19.73;;;12.10;;
13291;SDS011;6714;53.056;8.690;2022-12-18T16:04:40;19.17;;;11.83;;
13291;SDS011;6714;53.056;8.690;2022-12-18T16:07:24;18.00;;;12.57;;
13291;SDS011;6714;53.056;8.690;2022-12-18T16:10:07;17.90;;;11.40;;
13291;SDS011;6714;53.056;8.690;2022-12-18T16:12:49;14.20;;;9.30;;
13291;SDS011;6714;53.056;8.690;2022-12-18T16:15:31;17.23;;;11.70;;
13291;SDS011;6714;53.056;8.690;2022-12-18T16:18:14;14.50;;;10.37;;
13291;SDS011;6714;53.056;8.690;2022-12-18T16:20:56;22.10;;;12.97;;
13291;SDS011;6714;53.056;8.690;2022-12-18T16:23:40;16.00;;;11.17;;
13291;SDS011;6714;53.056;8.690;2022-12-18T16:26:22;13.90;;;9.63;;
13291;SDS011;6714;53.056;8.690;2022-12-18T16:29:04;16.23;;;10.57;;
13291;SDS011;6714;53.056;8.690;2022-12-18T16:31:46;13.43;;;10.37;;
13291;SDS011;6714;53.056;8.690;2022-12-18T16:34:29;21.33;;;13.50;;
13291;SDS011;6714;53.056;8.690;2022-12-18T16:37:12;15.50;;;11.37;;
13291;SDS011;6714;53.056;8.690;2022-12-18T16:39:57;16.83;;;11.90;;
13291;SDS011;6714;53.056;8.690;2022-12-18T16:42:39;14.87;;;10.77;;
13291;SDS011;6714;53.056;8.690;2022-12-18T16:45:22;15.70;;;11.23;;
13291;SDS011;6714;53.056;8.690;2022-12-18T16:48:13;17.47;;;11.70;;